Time;durP1;ratioP1;P1;durP2;ratioP2;P2;SDS_P1;SDS_P2;PMS_P1;PMS_P2;Temp;Humidity;BMP_temperature;BMP_pressure;BME280_temperature;BME280_humidity;BME280_pressure;Samples;Min_cycle;Max_cycle;Signal;HPM_P1;HPM_P2
2021/11/03 00:01:19;;;;;;;8.80;5.03;;;9.70;99.90;;;;;;5096007;28;20367;-74
2021/11/03 00:03:47;;;;;;;7.30;4.47;;;9.60;99.90;;;;;;5095979;28;20024;-71
2021/11/03 00:06:18;;;;;;;7.38;4.72;;;9.60;99.90;;;;;;5095914;28;20027;-74
2021/11/03 00:08:45;;;;;;;6.93;4.53;;;9.60;99.90;;;;;;5096005;28;20524;-70
2021/11/03 00:11:11;;;;;;;9.02;5.60;;;9.70;99.90;;;;;;5095828;28;20398;-73
2021/11/03 00:13:37;;;;;;;9.93;6.20;;;9.70;99.90;;;;;;5095817;28;20017;-71
2021/11/03 00:16:02;;;;;;;7.95;4.65;;;9.60;99.90;;;;;;5095732;28;20028;-71
2021/11/03 00:18:28;;;;;;;8.63;5.53;;;9.60;99.90;;;;;;5095442;28;20123;-71
2021/11/03 00:20:57;;;;;;;9.55;5.95;;;9.50;99.90;;;;;;5095913;28;20024;-73
2021/11/03 00:23:23;;;;;;;8.43;5.78;;;9.50;99.90;;;;;;5095589;28;20137;-72
2021/11/03 00:25:49;;;;;;;8.60;5.82;;;9.40;99.90;;;;;;5094267;28;20046;-72
2021/11/03 00:28:17;;;;;;;10.20;6.75;;;9.40;99.90;;;;;;5095768;28;20469;-70
2021/11/03 00:30:45;;;;;;;9.18;6.50;;;9.50;99.90;;;;;;5094579;28;20035;-72
2021/11/03 00:33:11;;;;;;;8.15;5.82;;;9.50;99.90;;;;;;5095409;28;20016;-73
2021/11/03 00:35:37;;;;;;;9.48;6.30;;;9.60;99.90;;;;;;5095636;28;20028;-70
2021/11/03 00:38:03;;;;;;;8.77;5.35;;;9.60;99.90;;;;;;5095312;28;20043;-72
2021/11/03 00:40:28;;;;;;;7.95;5.57;;;9.60;99.90;;;;;;5093956;28;20063;-73
2021/11/03 00:42:56;;;;;;;9.15;5.45;;;9.60;99.90;;;;;;5095215;28;20020;-70
2021/11/03 00:45:22;;;;;;;8.63;5.93;;;9.60;99.90;;;;;;5095156;28;20028;-73
2021/11/03 00:47:48;;;;;;;8.38;5.60;;;9.60;99.90;;;;;;5095147;28;20099;-69
2021/11/03 00:50:15;;;;;;;10.55;5.88;;;9.50;99.90;;;;;;5095271;28;20064;-70
2021/11/03 00:52:41;;;;;;;10.70;6.10;;;9.50;99.90;;;;;;5095338;28;20095;-70
2021/11/03 00:55:07;;;;;;;9.57;6.03;;;9.50;99.90;;;;;;5095492;28;20039;-71
2021/11/03 00:57:32;;;;;;;9.07;5.95;;;9.50;99.90;;;;;;5094949;28;20085;-74
2021/11/03 00:59:58;;;;;;;8.55;5.93;;;9.50;99.90;;;;;;5094857;28;20070;-72
2021/11/03 01:02:24;;;;;;;9.80;5.88;;;9.40;99.90;;;;;;5094839;28;20435;-68
2021/11/03 01:04:50;;;;;;;8.57;5.80;;;9.40;99.90;;;;;;5094772;28;20024;-72
2021/11/03 01:07:16;;;;;;;8.35;5.38;;;9.40;99.90;;;;;;5094795;28;20024;-72
2021/11/03 01:09:42;;;;;;;8.80;5.60;;;9.50;99.90;;;;;;5094853;28;20035;-71
2021/11/03 01:12:09;;;;;;;10.65;6.50;;;9.40;99.90;;;;;;5094645;28;20020;-73
2021/11/03 01:14:36;;;;;;;10.85;6.93;;;9.40;99.90;;;;;;5095157;28;20127;-70
2021/11/03 01:17:01;;;;;;;10.77;6.13;;;9.30;99.90;;;;;;5094334;28;20066;-72
2021/11/03 01:19:27;;;;;;;10.25;5.75;;;9.40;99.90;;;;;;5094543;28;20409;-70
2021/11/03 01:21:52;;;;;;;8.40;5.65;;;9.40;99.90;;;;;;5094439;28;20099;-71
2021/11/03 01:24:18;;;;;;;8.32;5.57;;;9.30;99.90;;;;;;5094691;28;20059;-71
2021/11/03 01:26:44;;;;;;;8.35;5.13;;;9.30;99.90;;;;;;5094601;28;20024;-70
2021/11/03 01:29:10;;;;;;;9.18;5.57;;;9.30;99.90;;;;;;5094243;28;20028;-71
2021/11/03 01:31:35;;;;;;;9.40;5.38;;;9.30;99.90;;;;;;5094527;28;20073;-71
2021/11/03 01:34:03;;;;;;;10.15;5.53;;;9.20;99.90;;;;;;5094250;28;20392;-72
2021/11/03 01:36:29;;;;;;;10.35;6.22;;;9.20;99.90;;;;;;5094195;28;20142;-72
2021/11/03 01:38:55;;;;;;;9.65;5.60;;;9.20;99.90;;;;;;5094186;28;20085;-71
2021/11/03 01:41:21;;;;;;;7.88;5.47;;;9.20;99.90;;;;;;5094370;28;20024;-71
2021/11/03 01:43:50;;;;;;;8.75;5.55;;;9.30;99.90;;;;;;5094602;28;20031;-70
2021/11/03 01:46:43;;;;;;;7.70;4.85;;;9.30;99.90;;;;;;5094046;28;20452;-70
2021/11/03 01:49:14;;;;;;;9.27;5.18;;;9.20;99.90;;;;;;5063883;28;20036;-71
2021/11/03 01:52:03;;;;;;;10.43;4.97;;;9.30;99.90;;;;;;5093922;28;20027;-70
2021/11/03 01:54:33;;;;;;;9.77;5.75;;;9.30;99.90;;;;;;5094468;28;20020;-72
2021/11/03 01:57:02;;;;;;;9.88;5.28;;;9.30;99.90;;;;;;5094184;28;20104;-70
2021/11/03 01:59:33;;;;;;;9.82;4.93;;;9.30;99.90;;;;;;5093820;28;20035;-70
2021/11/03 02:02:00;;;;;;;7.97;5.50;;;9.30;99.90;;;;;;5094127;28;20543;-72
2021/11/03 02:04:27;;;;;;;6.97;4.68;;;9.30;99.90;;;;;;5093713;28;20051;-73
2021/11/03 02:06:55;;;;;;;8.35;4.97;;;9.20;99.90;;;;;;5093737;28;20540;-72
2021/11/03 02:09:21;;;;;;;8.75;5.07;;;9.10;99.90;;;;;;5093483;28;20032;-70
2021/11/03 02:11:47;;;;;;;8.32;4.45;;;9.10;99.90;;;;;;5093653;28;20016;-70
2021/11/03 02:14:13;;;;;;;7.22;4.30;;;9.10;99.90;;;;;;5094059;28;20026;-70
2021/11/03 02:16:43;;;;;;;7.65;4.07;;;9.10;99.90;;;;;;5093454;28;20024;-72
2021/11/03 02:19:14;;;;;;;7.63;4.10;;;9.10;99.90;;;;;;5093156;28;20105;-72
2021/11/03 02:22:19;;;;;;;6.35;4.47;;;9.10;99.90;;;;;;5093419;28;20051;-72
2021/11/03 02:25:08;;;;;;;7.07;4.50;;;9.10;99.90;;;;;;5062686;28;20036;-70
2021/11/03 02:27:39;;;;;;;7.35;4.40;;;9.00;99.90;;;;;;5093657;28;20462;-70
2021/11/03 02:30:08;;;;;;;7.82;4.55;;;9.10;99.90;;;;;;5093328;28;20031;-68
2021/11/03 02:32:34;;;;;;;7.72;4.43;;;9.10;99.90;;;;;;5093624;28;20020;-71
2021/11/03 02:35:01;;;;;;;8.20;4.13;;;9.20;99.90;;;;;;5093312;28;20441;-71
2021/11/03 02:37:26;;;;;;;7.47;4.07;;;9.10;99.90;;;;;;5093354;28;20024;-71
2021/11/03 02:39:58;;;;;;;7.18;3.67;;;9.20;99.90;;;;;;5093214;28;20500;-72
2021/11/03 02:42:28;;;;;;;6.47;4.50;;;9.20;99.90;;;;;;5093554;28;20036;-72
2021/11/03 02:44:55;;;;;;;7.13;3.92;;;9.20;99.90;;;;;;5093552;28;20069;-72
2021/11/03 02:47:21;;;;;;;7.90;3.90;;;9.10;99.90;;;;;;5093460;28;20036;-69
2021/11/03 02:49:47;;;;;;;4.93;3.22;;;9.10;99.90;;;;;;5093408;28;20030;-72
2021/11/03 02:52:18;;;;;;;3.97;3.00;;;9.10;99.90;;;;;;5093162;28;20028;-71
2021/11/03 02:54:44;;;;;;;7.95;2.97;;;9.20;99.90;;;;;;5096875;28;20030;-72
2021/11/03 02:57:10;;;;;;;5.57;3.20;;;9.20;99.90;;;;;;5097538;28;20020;-70
2021/11/03 02:59:36;;;;;;;5.43;2.88;;;9.20;99.90;;;;;;5097255;28;20031;-73
2021/11/03 03:02:02;;;;;;;12.20;3.38;;;9.20;99.90;;;;;;5097193;28;20028;-73
2021/11/03 03:04:31;;;;;;;4.45;2.97;;;9.20;99.90;;;;;;5097331;28;20032;-70
2021/11/03 03:06:57;;;;;;;5.97;2.53;;;9.20;99.90;;;;;;5097088;28;20024;-71
2021/11/03 03:09:24;;;;;;;3.53;2.20;;;9.20;99.90;;;;;;5097482;28;20035;-70
2021/11/03 03:11:53;;;;;;;6.72;2.22;;;9.20;99.90;;;;;;5096992;28;20024;-72
2021/11/03 03:14:20;;;;;;;2.45;1.77;;;9.30;99.90;;;;;;5097250;28;20016;-70
2021/11/03 03:16:47;;;;;;;3.15;1.60;;;9.30;99.90;;;;;;5096931;28;20501;-70
2021/11/03 03:19:14;;;;;;;3.63;1.35;;;9.20;99.90;;;;;;5096418;28;20051;-71
2021/11/03 03:21:39;;;;;;;3.67;1.40;;;9.30;99.90;;;;;;5096812;28;20032;-70
2021/11/03 03:24:07;;;;;;;2.33;1.30;;;9.30;99.90;;;;;;5097301;28;20077;-72
2021/11/03 03:26:34;;;;;;;3.45;1.23;;;9.20;99.90;;;;;;5097022;28;20026;-72
2021/11/03 03:29:01;;;;;;;0.98;0.90;;;9.30;99.90;;;;;;5096578;28;20028;-70
2021/11/03 03:31:27;;;;;;;1.75;1.25;;;9.30;99.90;;;;;;5096599;28;20024;-71
2021/11/03 03:33:56;;;;;;;3.22;1.20;;;9.30;99.90;;;;;;5096556;28;20016;-69
2021/11/03 03:36:22;;;;;;;0.77;0.77;;;9.30;99.90;;;;;;5096577;28;20554;-70
2021/11/03 03:38:48;;;;;;;1.73;1.00;;;9.20;99.90;;;;;;5096489;28;20012;-72
2021/11/03 03:41:15;;;;;;;1.38;0.88;;;9.20;99.90;;;;;;5096726;28;20051;-71
2021/11/03 03:43:42;;;;;;;1.85;1.08;;;9.20;99.90;;;;;;5096652;28;20020;-70
2021/11/03 03:46:08;;;;;;;1.42;0.90;;;9.20;99.90;;;;;;5096640;28;20106;-70
2021/11/03 03:48:34;;;;;;;1.35;1.00;;;9.20;99.90;;;;;;5096267;28;20055;-70
2021/11/03 03:51:00;;;;;;;1.80;0.90;;;9.20;99.90;;;;;;5094839;28;20062;-71
2021/11/03 03:53:26;;;;;;;2.83;1.10;;;9.20;99.90;;;;;;5096198;28;20016;-69
2021/11/03 03:55:52;;;;;;;1.80;1.00;;;9.20;99.90;;;;;;5096175;28;20023;-71
2021/11/03 03:58:20;;;;;;;2.95;1.00;;;9.20;99.90;;;;;;5096081;28;20046;-72
2021/11/03 04:00:47;;;;;;;1.08;1.00;;;9.20;99.90;;;;;;5096081;28;20094;-72
2021/11/03 04:03:14;;;;;;;1.77;0.90;;;9.10;99.90;;;;;;5095935;28;20119;-70
2021/11/03 04:05:43;;;;;;;1.90;1.13;;;9.10;99.90;;;;;;5094742;28;20016;-72
2021/11/03 04:08:09;;;;;;;1.50;0.85;;;9.10;99.90;;;;;;5095917;28;20047;-70
2021/11/03 04:10:34;;;;;;;1.63;0.82;;;9.10;99.90;;;;;;5096315;28;20067;-70
2021/11/03 04:13:00;;;;;;;1.58;1.00;;;9.10;99.90;;;;;;5095861;28;20039;-69
2021/11/03 04:15:26;;;;;;;1.27;1.00;;;9.10;99.90;;;;;;5095810;28;20475;-72
2021/11/03 04:17:52;;;;;;;1.27;1.17;;;9.10;99.90;;;;;;5095475;28;20464;-72
2021/11/03 04:20:17;;;;;;;1.30;1.15;;;9.10;99.90;;;;;;5095914;28;20032;-71
2021/11/03 04:22:44;;;;;;;1.25;1.10;;;9.20;99.90;;;;;;5094337;28;20505;-70
2021/11/03 04:25:11;;;;;;;2.38;1.20;;;9.20;99.90;;;;;;5096442;28;20398;-70
2021/11/03 04:27:37;;;;;;;2.17;0.93;;;9.10;99.90;;;;;;5095516;28;20031;-71
2021/11/03 04:30:05;;;;;;;2.45;1.00;;;9.10;99.90;;;;;;5095414;28;20028;-69
2021/11/03 04:32:31;;;;;;;2.97;0.90;;;9.10;99.90;;;;;;5095716;28;20028;-72
2021/11/03 04:34:56;;;;;;;1.30;1.20;;;9.20;99.90;;;;;;5095341;28;20026;-72
2021/11/03 04:37:22;;;;;;;3.50;1.48;;;9.20;99.90;;;;;;5095920;28;20026;-71
2021/11/03 04:39:47;;;;;;;1.13;0.75;;;9.10;99.90;;;;;;5095588;28;20026;-70
2021/11/03 04:42:13;;;;;;;1.38;1.00;;;9.10;99.90;;;;;;5095238;28;20507;-68
2021/11/03 04:44:39;;;;;;;1.25;1.00;;;9.20;99.90;;;;;;5095272;28;20039;-71
2021/11/03 04:47:06;;;;;;;0.77;0.73;;;9.20;99.90;;;;;;5095496;28;20428;-70
2021/11/03 04:49:31;;;;;;;2.22;0.80;;;9.20;99.90;;;;;;5095068;28;20059;-71
2021/11/03 04:51:57;;;;;;;3.22;0.85;;;9.20;99.90;;;;;;5095696;28;20047;-72
2021/11/03 04:54:23;;;;;;;2.05;1.30;;;9.20;99.90;;;;;;5095072;28;20389;-72
2021/11/03 04:56:51;;;;;;;1.63;1.00;;;9.30;99.90;;;;;;5094977;28;20024;-72
2021/11/03 04:59:18;;;;;;;1.02;0.73;;;9.20;99.90;;;;;;5094912;28;20046;-70
2021/11/03 05:01:44;;;;;;;1.38;0.80;;;9.20;99.90;;;;;;5095145;28;20102;-71
2021/11/03 05:04:09;;;;;;;4.53;0.70;;;9.20;99.90;;;;;;5095372;28;20107;-72
2021/11/03 05:06:37;;;;;;;1.52;0.70;;;9.10;99.90;;;;;;5094769;28;20077;-73
2021/11/03 05:09:06;;;;;;;3.45;0.93;;;9.10;99.90;;;;;;5094586;28;20039;-71
2021/11/03 05:11:32;;;;;;;3.47;0.77;;;9.10;99.90;;;;;;5094733;28;20091;-73
2021/11/03 05:13:58;;;;;;;2.85;0.80;;;9.20;99.90;;;;;;5095164;28;20116;-72
2021/11/03 05:16:25;;;;;;;1.20;0.80;;;9.20;99.90;;;;;;5094328;28;20146;-70
2021/11/03 05:18:52;;;;;;;3.33;1.00;;;9.20;99.90;;;;;;5094317;28;20525;-71
2021/11/03 05:21:18;;;;;;;1.98;0.88;;;9.20;99.90;;;;;;5094797;28;20020;-71
2021/11/03 05:23:43;;;;;;;3.92;0.98;;;9.00;99.90;;;;;;5094449;28;20501;-71
2021/11/03 05:26:12;;;;;;;3.08;1.10;;;9.00;99.90;;;;;;5094457;28;20129;-70
2021/11/03 05:28:40;;;;;;;1.02;0.80;;;9.00;99.90;;;;;;5094416;28;20028;-72
2021/11/03 05:31:05;;;;;;;0.70;0.60;;;9.00;99.90;;;;;;5094293;28;20085;-72
2021/11/03 05:33:31;;;;;;;3.50;1.25;;;9.20;99.90;;;;;;5094264;28;20482;-71
2021/11/03 05:35:57;;;;;;;0.73;0.68;;;9.20;99.90;;;;;;5094605;28;20469;-72
2021/11/03 05:38:22;;;;;;;3.42;1.00;;;9.30;99.90;;;;;;5094228;28;20473;-70
2021/11/03 05:40:49;;;;;;;4.07;1.20;;;9.30;99.90;;;;;;5094159;28;20028;-69
2021/11/03 05:43:14;;;;;;;2.38;0.90;;;9.20;99.90;;;;;;5094123;28;20028;-71
2021/11/03 05:45:40;;;;;;;7.63;2.90;;;9.20;99.90;;;;;;5094041;28;20547;-70
2021/11/03 05:48:05;;;;;;;3.90;1.83;;;9.20;99.90;;;;;;5093988;28;20031;-71
2021/11/03 05:50:34;;;;;;;5.60;2.30;;;9.20;99.90;;;;;;5093937;28;20461;-73
2021/11/03 05:53:00;;;;;;;15.57;9.18;;;9.20;99.90;;;;;;5094193;28;20076;-71
2021/11/03 05:55:26;;;;;;;14.23;9.75;;;9.10;99.90;;;;;;5093862;28;20114;-69
2021/11/03 05:57:52;;;;;;;8.52;4.65;;;9.10;99.90;;;;;;5093820;28;20049;-71
2021/11/03 06:00:23;;;;;;;8.50;3.92;;;9.10;99.90;;;;;;5093845;28;20505;-72
2021/11/03 06:02:49;;;;;;;4.90;2.45;;;9.00;99.90;;;;;;5094380;28;20024;-70
2021/11/03 06:05:16;;;;;;;2.97;1.65;;;9.00;99.90;;;;;;5094007;28;20051;-72
2021/11/03 06:07:55;;;;;;;1.98;1.40;;;9.10;99.90;;;;;;5093678;28;20032;-71
2021/11/03 06:10:48;;;;;;;2.67;1.55;;;9.10;99.90;;;;;;5093613;28;20039;-72
2021/11/03 06:13:14;;;;;;;4.38;2.70;;;9.00;99.90;;;;;;5093913;28;20028;-73
2021/11/03 06:15:40;;;;;;;5.07;3.50;;;8.90;99.90;;;;;;5093567;28;20031;-73
2021/11/03 06:18:07;;;;;;;8.20;5.93;;;8.90;99.90;;;;;;5093371;28;20040;-72
2021/11/03 06:20:34;;;;;;;9.73;5.13;;;8.90;99.90;;;;;;5093496;28;20455;-72
2021/11/03 06:23:00;;;;;;;9.07;5.63;;;8.90;99.90;;;;;;5093488;28;20466;-73
2021/11/03 06:25:26;;;;;;;6.00;4.50;;;8.80;99.90;;;;;;5093700;28;20024;-70
2021/11/03 06:27:55;;;;;;;4.95;2.42;;;8.80;99.90;;;;;;5093035;28;20028;-71
2021/11/03 06:30:26;;;;;;;10.68;7.00;;;8.80;99.90;;;;;;5093862;28;20027;-72
2021/11/03 06:32:51;;;;;;;4.82;1.90;;;8.70;99.90;;;;;;5093953;28;20116;-70
2021/11/03 06:35:18;;;;;;;2.05;1.35;;;8.60;99.90;;;;;;5093357;28;20056;-71
2021/11/03 06:37:44;;;;;;;2.65;1.45;;;8.60;99.90;;;;;;5093619;28;20046;-71
2021/11/03 06:40:14;;;;;;;5.50;2.08;;;8.60;99.90;;;;;;5093305;28;20047;-71
2021/11/03 06:42:39;;;;;;;2.78;1.30;;;8.50;99.90;;;;;;5093850;28;20059;-70
2021/11/03 06:45:07;;;;;;;3.20;1.88;;;8.50;99.90;;;;;;5093485;28;20059;-70
2021/11/03 06:47:33;;;;;;;2.92;1.90;;;8.50;99.90;;;;;;5093211;28;20035;-71
2021/11/03 06:49:59;;;;;;;3.67;2.20;;;8.50;99.90;;;;;;5093173;28;20024;-72
2021/11/03 06:52:25;;;;;;;2.90;2.30;;;8.50;99.90;;;;;;5093736;28;20021;-71
2021/11/03 06:54:51;;;;;;;6.00;2.10;;;8.50;99.90;;;;;;5093171;28;20031;-72
2021/11/03 06:57:17;;;;;;;2.15;1.85;;;8.50;99.90;;;;;;5091826;28;20118;-72
2021/11/03 06:59:43;;;;;;;3.60;1.80;;;8.40;99.90;;;;;;5093091;28;20060;-71
2021/11/03 07:02:14;;;;;;;2.20;1.55;;;8.40;99.90;;;;;;5093107;28;20536;-69
2021/11/03 07:04:40;;;;;;;3.85;2.67;;;8.30;99.90;;;;;;5093179;28;20093;-70
2021/11/03 07:07:05;;;;;;;3.20;2.00;;;8.30;99.90;;;;;;5093299;28;20486;-71
2021/11/03 07:09:31;;;;;;;7.53;2.30;;;8.20;99.90;;;;;;5093257;28;20028;-69
2021/11/03 07:11:57;;;;;;;3.00;2.05;;;8.20;99.90;;;;;;5093505;28;20031;-69
2021/11/03 07:14:22;;;;;;;5.10;2.33;;;8.20;99.90;;;;;;5092990;28;20020;-71
2021/11/03 07:16:48;;;;;;;8.05;3.47;;;8.20;99.90;;;;;;5093487;28;20145;-71
2021/11/03 07:19:14;;;;;;;4.95;2.65;;;8.20;99.90;;;;;;5092768;28;20109;-71
2021/11/03 07:21:40;;;;;;;5.15;2.83;;;8.20;99.90;;;;;;5092912;28;20545;-72
2021/11/03 07:24:06;;;;;;;7.57;3.72;;;8.20;99.90;;;;;;5093217;28;20036;-72
2021/11/03 07:26:32;;;;;;;17.70;11.85;;;8.20;99.90;;;;;;5093120;28;20036;-74
2021/11/03 07:28:57;;;;;;;5.90;3.40;;;8.10;99.90;;;;;;5093360;28;20027;-71
2021/11/03 07:31:23;;;;;;;5.47;2.83;;;8.20;99.90;;;;;;5092823;28;20020;-71
2021/11/03 07:33:49;;;;;;;4.20;2.72;;;8.20;99.90;;;;;;5093049;28;20024;-72
2021/11/03 07:36:17;;;;;;;6.05;2.58;;;8.10;99.90;;;;;;5092758;28;20069;-72
2021/11/03 07:38:43;;;;;;;6.15;3.97;;;8.10;99.90;;;;;;5092724;28;20393;-69
2021/11/03 07:41:09;;;;;;;7.38;3.67;;;8.20;99.90;;;;;;5096452;28;20111;-71
2021/11/03 07:43:35;;;;;;;3.72;2.75;;;8.20;99.90;;;;;;5096683;28;20056;-68
2021/11/03 07:46:02;;;;;;;6.05;3.15;;;8.30;99.90;;;;;;5096569;28;20170;-71
2021/11/03 07:48:29;;;;;;;3.97;2.13;;;8.30;99.90;;;;;;5096320;28;20110;-72
2021/11/03 07:51:02;;;;;;;2.97;1.80;;;8.30;99.90;;;;;;5096726;28;20043;-72
2021/11/03 07:53:28;;;;;;;4.13;2.25;;;8.40;99.90;;;;;;5096466;28;20016;-71
2021/11/03 07:55:58;;;;;;;5.25;2.20;;;8.30;99.90;;;;;;5096392;28;20032;-70
2021/11/03 07:58:27;;;;;;;3.50;1.90;;;8.10;99.90;;;;;;5096696;28;20064;-71
2021/11/03 08:00:55;;;;;;;3.92;2.80;;;8.20;99.90;;;;;;5094731;28;20508;-72
2021/11/03 08:03:21;;;;;;;5.53;2.70;;;8.20;99.90;;;;;;5096010;28;20020;-71
2021/11/03 08:05:51;;;;;;;6.40;3.85;;;8.20;99.90;;;;;;5096257;28;20035;-72
2021/11/03 08:08:19;;;;;;;5.63;2.92;;;8.20;99.90;;;;;;5095925;28;20086;-69
2021/11/03 08:10:46;;;;;;;4.22;2.08;;;8.20;99.90;;;;;;5094450;28;20086;-69
2021/11/03 08:13:16;;;;;;;4.15;3.05;;;8.20;99.90;;;;;;5094547;28;20016;-72
2021/11/03 08:15:46;;;;;;;;;;;8.30;99.90;;;;;;5096778;28;20046;-73
2021/11/03 08:18:13;;;;;;;9.15;3.97;;;8.40;99.90;;;;;;5095653;28;19916;-72
2021/11/03 08:20:41;;;;;;;4.85;2.78;;;8.40;99.90;;;;;;5095935;28;20031;-70
2021/11/03 08:23:08;;;;;;;8.88;3.83;;;8.40;99.90;;;;;;5095905;28;20023;-71
2021/11/03 08:25:34;;;;;;;8.32;4.32;;;8.40;99.90;;;;;;5096116;28;20026;-73
2021/11/03 08:28:01;;;;;;;4.38;3.17;;;8.40;99.90;;;;;;5095840;28;20432;-69
2021/11/03 08:30:27;;;;;;;5.95;3.20;;;8.50;99.90;;;;;;5095431;28;20024;-72
2021/11/03 08:32:57;;;;;;;3.42;2.40;;;8.60;99.90;;;;;;5095357;28;20358;-71
2021/11/03 08:35:25;;;;;;;3.13;2.20;;;8.60;99.90;;;;;;5095759;28;20114;-71
2021/11/03 08:37:53;;;;;;;10.32;4.65;;;8.60;99.90;;;;;;5095654;28;20028;-71
2021/11/03 08:40:22;;;;;;;5.97;3.20;;;8.70;99.90;;;;;;5095311;28;20024;-71
2021/11/03 08:42:48;;;;;;;4.68;3.30;;;9.00;99.90;;;;;;5095304;28;20020;-71
2021/11/03 08:45:14;;;;;;;4.88;2.58;;;9.40;99.90;;;;;;5095237;28;20097;-71
2021/11/03 08:47:41;;;;;;;3.47;2.65;;;10.00;99.90;;;;;;5095774;28;20059;-72
2021/11/03 08:50:12;;;;;;;3.03;1.55;;;10.60;99.90;;;;;;5095337;28;20028;-71
2021/11/03 08:52:38;;;;;;;4.45;2.25;;;11.00;99.90;;;;;;5094762;28;20030;-72
2021/11/03 08:55:04;;;;;;;3.58;2.05;;;11.40;99.90;;;;;;5093728;28;20024;-71
2021/11/03 08:57:33;;;;;;;4.97;3.38;;;11.80;99.90;;;;;;5095232;28;20081;-71
2021/11/03 08:59:59;;;;;;;5.73;4.13;;;12.20;99.90;;;;;;5094939;28;20028;-72
2021/11/03 09:02:25;;;;;;;5.90;3.72;;;12.30;99.90;;;;;;5095218;28;20031;-69
2021/11/03 09:04:52;;;;;;;8.27;4.30;;;12.50;99.90;;;;;;5095054;28;20031;-71
2021/11/03 09:07:18;;;;;;;16.58;14.88;;;12.70;99.90;;;;;;5094790;28;20508;-71
2021/11/03 09:09:47;;;;;;;7.60;4.88;;;12.70;99.90;;;;;;5094590;28;20024;-70
2021/11/03 09:12:18;;;;;;;4.40;1.90;;;12.80;99.90;;;;;;5094952;28;20092;-72
2021/11/03 09:14:43;;;;;;;3.70;1.58;;;12.80;99.90;;;;;;5094968;28;20050;-70
2021/11/03 09:17:10;;;;;;;5.55;2.60;;;12.70;99.90;;;;;;5094641;28;20024;-72
2021/11/03 09:19:37;;;;;;;4.78;2.28;;;12.60;99.90;;;;;;5094586;28;20039;-72
2021/11/03 09:22:03;;;;;;;2.45;1.80;;;12.60;99.90;;;;;;5094536;28;20548;-71
2021/11/03 09:24:29;;;;;;;2.35;1.80;;;13.00;99.90;;;;;;5094479;28;20026;-71
2021/11/03 09:26:54;;;;;;;2.15;1.50;;;13.50;99.90;;;;;;5094701;28;20024;-71
2021/11/03 09:29:20;;;;;;;3.95;1.88;;;13.80;99.90;;;;;;5094593;28;20078;-71
2021/11/03 09:31:45;;;;;;;2.50;1.65;;;14.10;99.90;;;;;;5094610;28;20423;-71
2021/11/03 09:34:13;;;;;;;3.60;1.65;;;14.40;99.90;;;;;;5094518;28;20058;-70
2021/11/03 09:36:42;;;;;;;2.40;1.20;;;14.50;99.90;;;;;;5094830;28;20024;-73
2021/11/03 09:39:09;;;;;;;2.47;1.58;;;14.20;99.90;;;;;;5094547;28;20028;-70
2021/11/03 09:41:42;;;;;;;2.45;1.88;;;14.30;99.90;;;;;;5094176;28;20024;-72
2021/11/03 09:44:10;;;;;;;2.92;1.27;;;14.40;99.90;;;;;;5094162;28;20470;-70
2021/11/03 09:46:58;;;;;;;1.48;1.02;;;14.20;99.90;;;;;;5094047;28;20031;-71
2021/11/03 09:49:29;;;;;;;1.40;0.80;;;14.00;99.90;;;;;;5094261;28;20032;-71
2021/11/03 09:52:00;;;;;;;1.75;0.77;;;13.80;99.90;;;;;;5094423;28;20070;-72
2021/11/03 09:54:29;;;;;;;;;;;13.60;99.90;;;;;;5094987;28;20024;-70
2021/11/03 09:57:06;;;;;;;1.63;0.90;;;13.50;99.90;;;;;;5093907;28;19904;-71
2021/11/03 09:59:39;;;;;;;1.48;0.68;;;13.40;99.90;;;;;;5094186;28;20246;-70
2021/11/03 10:02:17;;;;;;;0.70;0.63;;;13.30;99.90;;;;;;5093868;28;20535;-73
2021/11/03 10:04:51;;;;;;;1.40;0.68;;;13.30;99.90;;;;;;5093330;28;20058;-69
2021/11/03 10:07:20;;;;;;;0.73;0.63;;;13.00;99.90;;;;;;5094274;28;20099;-72
2021/11/03 10:09:45;;;;;;;3.13;0.80;;;13.20;99.90;;;;;;5093560;28;20067;-72
2021/11/03 10:12:14;;;;;;;1.35;1.13;;;13.10;99.90;;;;;;5093593;28;20060;-71
2021/11/03 10:14:41;;;;;;;2.03;0.70;;;13.00;99.90;;;;;;5093916;28;20024;-71
2021/11/03 10:17:22;;;;;;;0.70;0.70;;;13.00;99.90;;;;;;5093611;28;20103;-71
2021/11/03 10:19:49;;;;;;;1.88;0.90;;;13.00;99.90;;;;;;5094194;28;20055;-70
2021/11/03 10:22:28;;;;;;;2.20;0.70;;;13.00;99.90;;;;;;5093571;28;20016;-70
2021/11/03 10:25:05;;;;;;;1.33;0.70;;;12.80;99.90;;;;;;5093818;28;20059;-70
2021/11/03 10:27:40;;;;;;;2.40;0.90;;;12.80;99.90;;;;;;5091858;28;20494;-70
2021/11/03 10:30:51;;;;;;;0.50;0.50;;;12.70;99.90;;;;;;5093390;28;20028;-73
2021/11/03 10:33:43;;;;;;;1.52;0.57;;;12.80;99.90;;;;;;5084703;28;20035;-72
2021/11/03 10:36:19;;;;;;;1.52;0.85;;;12.90;99.90;;;;;;5093282;28;20489;-73
2021/11/03 10:38:48;;;;;;;4.57;0.88;;;12.90;99.90;;;;;;5093888;28;20016;-74
2021/11/03 10:41:27;;;;;;;1.13;0.75;;;12.80;99.90;;;;;;5093582;28;20541;-70
2021/11/03 10:43:59;;;;;;;2.50;0.88;;;12.80;99.90;;;;;;5091756;28;20031;-71
2021/11/03 10:46:29;;;;;;;3.65;0.82;;;12.70;99.90;;;;;;5093277;28;20032;-72
2021/11/03 10:49:33;;;;;;;1.23;0.70;;;12.70;99.90;;;;;;5093791;28;20020;-71
2021/11/03 10:52:22;;;;;;;3.30;1.83;;;12.70;99.90;;;;;;5093817;28;20027;-70
2021/11/03 10:55:09;;;;;;;2.83;1.00;;;12.70;99.90;;;;;;5093512;28;20027;-68
2021/11/03 10:57:38;;;;;;;1.23;0.70;;;12.90;99.90;;;;;;5093747;28;20018;-72
2021/11/03 11:00:27;;;;;;;2.22;0.70;;;12.90;99.90;;;;;;5093090;28;20496;-73
2021/11/03 11:02:59;;;;;;;2.25;0.43;;;12.90;99.90;;;;;;5093661;28;20080;-72
2021/11/03 11:05:28;;;;;;;1.20;0.63;;;12.80;99.90;;;;;;5093322;28;20035;-71
2021/11/03 11:08:22;;;;;;;1.00;0.80;;;12.70;99.90;;;;;;5093037;28;20016;-70
2021/11/03 11:11:14;;;;;;;2.17;0.95;;;12.50;99.90;;;;;;5090217;28;20039;-72
2021/11/03 11:13:57;;;;;;;0.70;0.55;;;12.50;99.90;;;;;;5093633;28;20016;-70
2021/11/03 11:16:45;;;;;;;1.23;0.73;;;12.30;99.90;;;;;;5097285;28;20165;-72
2021/11/03 11:19:28;;;;;;;0.95;0.55;;;12.20;99.90;;;;;;5096528;28;20137;-72
2021/11/03 11:21:59;;;;;;;1.42;0.50;;;12.30;99.90;;;;;;5096905;28;20028;-71
2021/11/03 11:24:49;;;;;;;1.48;0.50;;;12.40;99.90;;;;;;5097363;28;20021;-70
2021/11/03 11:27:28;;;;;;;3.65;0.77;;;12.50;99.90;;;;;;5097065;28;20027;-71
2021/11/03 11:29:59;;;;;;;1.83;0.82;;;12.50;99.90;;;;;;5097220;28;20024;-69
2021/11/03 11:32:39;;;;;;;2.80;1.00;;;12.50;99.90;;;;;;5097206;28;20107;-71
2021/11/03 11:35:08;;;;;;;3.20;0.70;;;12.50;99.90;;;;;;5097188;28;20024;-72
2021/11/03 11:37:59;;;;;;;1.02;0.70;;;12.60;99.90;;;;;;5096832;28;20028;-71
2021/11/03 11:40:51;;;;;;;0.47;0.47;;;12.60;99.90;;;;;;5096816;28;20025;-71
2021/11/03 11:43:41;;;;;;;2.05;0.80;;;12.50;99.90;;;;;;5097041;28;20039;-72
2021/11/03 11:46:15;;;;;;;2.80;0.90;;;12.60;99.90;;;;;;5096719;28;20016;-72
2021/11/03 11:48:41;;;;;;;1.75;0.65;;;12.40;99.90;;;;;;5096688;28;20036;-70
2021/11/03 11:51:17;;;;;;;0.90;0.63;;;12.40;99.90;;;;;;5096480;28;20073;-71
2021/11/03 11:53:52;;;;;;;1.52;0.63;;;12.30;99.90;;;;;;5096272;28;20106;-71
2021/11/03 11:56:22;;;;;;;0.90;0.90;;;12.50;99.90;;;;;;5096267;28;20027;-72
2021/11/03 11:59:08;;;;;;;1.45;0.93;;;12.60;99.90;;;;;;5096505;28;20020;-72
2021/11/03 12:01:37;;;;;;;1.58;0.77;;;12.70;99.90;;;;;;5081935;28;20032;-71
2021/11/03 12:04:02;;;;;;;2.28;0.80;;;12.60;99.90;;;;;;5096038;28;20035;-69
2021/11/03 12:06:52;;;;;;;2.25;0.95;;;12.50;99.90;;;;;;5094703;28;20028;-71
2021/11/03 12:09:33;;;;;;;0.95;0.65;;;12.50;99.90;;;;;;5096210;28;20028;-69
2021/11/03 12:12:08;;;;;;;2.17;0.75;;;12.60;99.90;;;;;;5095974;28;20016;-73
2021/11/03 12:14:47;;;;;;;2.63;0.90;;;12.70;99.90;;;;;;5095928;28;20020;-72
2021/11/03 12:17:36;;;;;;;3.17;0.95;;;12.70;99.90;;;;;;5095875;28;20060;-71
2021/11/03 12:20:26;;;;;;;2.75;0.95;;;12.90;99.90;;;;;;5096309;28;20497;-71
2021/11/03 12:23:05;;;;;;;1.25;0.80;;;13.10;99.90;;;;;;5096013;28;20020;-72
2021/11/03 12:25:30;;;;;;;2.08;1.00;;;13.30;99.90;;;;;;5094962;28;20026;-72
2021/11/03 12:28:12;;;;;;;1.95;0.98;;;13.50;99.90;;;;;;5095256;28;20024;-72
2021/11/03 12:30:43;;;;;;;0.90;0.80;;;13.60;99.90;;;;;;5096013;28;20032;-72
2021/11/03 12:33:14;;;;;;;1.90;1.42;;;13.70;99.90;;;;;;5095793;28;20017;-72
2021/11/03 12:35:40;;;;;;;1.55;1.00;;;13.80;99.90;;;;;;5096019;28;20377;-70
2021/11/03 12:38:11;;;;;;;2.10;1.05;;;13.90;99.90;;;;;;5095412;28;20020;-71
2021/11/03 12:40:39;;;;;;;1.65;0.90;;;13.90;99.90;;;;;;5095367;28;20028;-72
2021/11/03 12:43:40;;;;;;;1.88;0.80;;;13.90;99.90;;;;;;5095605;28;20115;-72
2021/11/03 12:46:09;;;;;;;2.45;0.73;;;13.90;99.90;;;;;;5091547;28;20124;-69
2021/11/03 12:48:38;;;;;;;1.40;0.73;;;13.70;99.90;;;;;;5095211;28;20042;-73
2021/11/03 12:51:23;;;;;;;2.40;0.80;;;13.70;99.90;;;;;;5095093;28;20489;-69
2021/11/03 12:54:06;;;;;;;2.60;0.98;;;13.80;99.90;;;;;;5095724;28;20485;-71
2021/11/03 12:56:38;;;;;;;2.20;1.05;;;13.80;99.90;;;;;;5095068;28;20031;-69
2021/11/03 12:59:17;;;;;;;1.75;0.85;;;13.80;99.90;;;;;;5095029;28;20021;-72
2021/11/03 13:02:24;;;;;;;3.85;0.80;;;13.70;99.90;;;;;;5095527;28;20020;-70
2021/11/03 13:05:03;;;;;;;3.88;1.30;;;13.40;99.90;;;;;;5093936;28;20036;-71
2021/11/03 13:07:36;;;;;;;4.65;1.98;;;13.20;99.90;;;;;;5095123;28;20095;-72